Ashby, Minnesota
Current Conditions -  °F | °C
As of 6:16 AM on Monday 20 Oct 2014 (Local Time) from KY63 Reporting Station
Clear Clear  
Wind Chill: 37°   Ceiling: Unl
Heat Index: 40°   Visibility: 10mi
Dew Point: 37°   Wind: 5mph
Humidity: 87%   Direction: 350°N
Pressure: 30"   Gusts: NA
Location:  46.09°N, 95.82°W
Report Text: KY63 201116Z AUTO 35004KT 10SM CLR 05/03 A3000 RMK AO2 T00450025
Loading
Personal Weather Stations






























Interactive Weather Map New forecast layout! Learn more

10-Day Weather Forecast

Advertisements
Track Severe Weather on mobile